This is the latest recevied weather packets stored in our database for station/object AE0NK. If no packets are shown the sender has not sent any weather packets the latest 10 day(s).
| Time | Temp. | Humidity | Pressure | Rain* | Wind** | Luminosity | Snow |
|---|---|---|---|---|---|---|---|
| 1777933696 | 25° C | 38% | 998.4 hPa | 0 mm | - | 211 W/m² | - |
| 1777933395 | 25° C | 37% | 998.1 hPa | 0 mm | - | 123 W/m² | - |
| 1777933093 | 24.44° C | 45% | 998.1 hPa | 0 mm | - | 362 W/m² | - |
| 1777932792 | 23.89° C | 44% | 998 hPa | 0 mm | - | 482 W/m² | - |
| 1777932509 | 23.89° C | 50% | 998.3 hPa | 0 mm | - | 185 W/m² | - |
| 1777932206 | 23.89° C | 44% | 998.4 hPa | 0 mm | - | 95 W/m² | - |
| 1777931902 | 23.89° C | 43% | 998.3 hPa | 0 mm | - | 91 W/m² | - |
| 1777931599 | 24.44° C | 40% | 998.5 hPa | 0 mm | - | 121 W/m² | - |
| 1777931297 | 25° C | 38% | 998.5 hPa | 0 mm | - | 100 W/m² | - |
| 1777930996 | 25.56° C | 37% | 998.5 hPa | 0 mm | - | 548 W/m² | - |
| 1777930694 | 25° C | 40% | 998.5 hPa | 0 mm | - | 633 W/m² | - |
| 1777930395 | 24.44° C | 43% | 998.6 hPa | 0 mm | - | 670 W/m² | - |
| 1777930094 | 23.33° C | 45% | 998.7 hPa | 0 mm | - | 710 W/m² | - |
| 1777929793 | 22.78° C | 46% | 998.8 hPa | 0 mm | - | 281 W/m² | - |
| 1777929491 | 23.33° C | 44% | 998.7 hPa | 0 mm | - | 265 W/m² | - |
| 1777929211 | 23.89° C | 40% | 999 hPa | 0 mm | - | 58 W/m² | - |
| 1777928909 | 23.89° C | 39% | 998.8 hPa | 0 mm | - | 33 W/m² | - |
| 1777928608 | 23.89° C | 48% | 998.8 hPa | 0 mm | - | 65 W/m² | - |
| 1777928303 | 23.89° C | 39% | 998.6 hPa | 0 mm | - | 91 W/m² | - |
| 1777928000 | 23.33° C | 45% | 998.6 hPa | 0 mm | - | 241 W/m² | - |
| 1777927697 | 22.22° C | 49% | 999 hPa | 0 mm | - | 114 W/m² | - |
| 1777927395 | 22.22° C | 50% | 998.9 hPa | 0 mm | - | 84 W/m² | - |
| 1777927093 | 23.33° C | 50% | 999 hPa | 0 mm | - | 91 W/m² | - |
| 1777926812 | 26.67° C | 30% | 999 hPa | 0 mm | - | 97 W/m² | - |
| 1777926508 | 26.67° C | 29% | 998.6 hPa | 0 mm | - | 100 W/m² | - |
* Rain latest hour (hover to see other rain measurements)
** Current wind speed in m/s (hover to see current wind gust speed)